createdAt,value
2023-05-02T00:02:12.301Z,11.00
2023-05-02T00:04:40.080Z,10.95
2023-05-02T00:07:07.801Z,10.87
2023-05-02T00:09:35.312Z,10.79
2023-05-02T00:12:03.359Z,10.75
2023-05-02T00:14:31.194Z,10.82
2023-05-02T00:16:58.822Z,10.81
2023-05-02T00:19:26.393Z,10.83
2023-05-02T00:21:53.844Z,10.82
2023-05-02T00:24:21.186Z,10.82
2023-05-02T00:26:48.609Z,10.84
2023-05-02T00:29:16.166Z,10.85
2023-05-02T00:31:44.538Z,10.97
2023-05-02T00:34:12.058Z,10.97
2023-05-02T00:36:39.611Z,10.96
2023-05-02T00:39:07.083Z,10.87
2023-05-02T00:41:34.686Z,10.81
2023-05-02T00:44:02.233Z,10.76
2023-05-02T00:46:30.091Z,10.77
2023-05-02T00:48:57.548Z,10.70
2023-05-02T00:51:25.216Z,10.63
2023-05-02T00:53:53.526Z,10.61
2023-05-02T00:56:21.720Z,10.53
2023-05-02T00:58:49.670Z,10.53
2023-05-02T01:01:45.057Z,10.51
2023-05-02T01:04:18.901Z,10.54
2023-05-02T01:07:11.127Z,10.58
2023-05-02T01:10:18.422Z,10.67
2023-05-02T01:13:06.144Z,10.77
2023-05-02T01:15:37.468Z,10.81
2023-05-02T01:18:08.779Z,10.87
2023-05-02T01:20:41.873Z,10.95
2023-05-02T01:23:23.664Z,10.98
2023-05-02T01:26:20.655Z,11.02
2023-05-02T01:29:09.230Z,11.12
2023-05-02T01:31:41.966Z,11.17
2023-05-02T01:34:12.019Z,11.20
2023-05-02T01:36:44.119Z,11.30
2023-05-02T01:39:16.077Z,11.31
2023-05-02T01:41:45.241Z,11.40
2023-05-02T01:44:15.398Z,11.45
2023-05-02T01:46:44.028Z,11.45
2023-05-02T01:49:11.912Z,11.50
2023-05-02T01:51:49.118Z,11.52
2023-05-02T01:54:19.834Z,11.51
2023-05-02T01:56:49.415Z,11.61
2023-05-02T01:59:20.328Z,11.54
2023-05-02T02:01:50.199Z,11.60
2023-05-02T02:04:20.063Z,11.71
2023-05-02T02:06:54.245Z,11.72
2023-05-02T02:09:21.954Z,11.63
2023-05-02T02:12:16.177Z,11.60
2023-05-02T02:14:50.107Z,11.57
2023-05-02T02:17:40.071Z,11.63
2023-05-02T02:20:11.321Z,11.60
2023-05-02T02:22:41.593Z,11.58
2023-05-02T02:25:14.744Z,11.57
2023-05-02T02:27:43.315Z,11.80
2023-05-02T02:30:11.534Z,11.86
2023-05-02T02:32:39.096Z,11.54
2023-05-02T02:35:07.546Z,11.50
2023-05-02T02:37:45.929Z,11.64
2023-05-02T02:40:24.898Z,11.61
2023-05-02T02:43:11.759Z,11.63
2023-05-02T02:45:56.398Z,11.63
2023-05-02T02:48:47.210Z,11.76
2023-05-02T02:51:28.854Z,11.76
2023-05-02T02:54:26.956Z,11.60
2023-05-02T02:57:10.475Z,11.54
2023-05-02T02:59:42.306Z,11.61
2023-05-02T03:02:15.189Z,11.61
2023-05-02T03:04:44.692Z,11.66
2023-05-02T03:07:12.279Z,11.74
2023-05-02T03:09:47.629Z,11.80
2023-05-02T03:12:21.213Z,11.77
2023-05-02T03:14:51.096Z,11.55
2023-05-02T03:17:18.742Z,11.54
2023-05-02T03:19:47.435Z,11.57
2023-05-02T03:22:15.002Z,11.41
2023-05-02T03:24:42.497Z,11.19
2023-05-02T03:27:12.316Z,11.13
2023-05-02T03:29:42.276Z,11.23
2023-05-02T03:32:11.821Z,11.04
2023-05-02T03:34:41.868Z,11.15
2023-05-02T03:37:10.155Z,11.17
2023-05-02T03:39:37.874Z,11.11
2023-05-02T03:42:05.769Z,11.13
2023-05-02T03:44:33.400Z,11.29
2023-05-02T03:47:00.868Z,11.33
2023-05-02T03:49:29.322Z,11.52
2023-05-02T03:51:57.250Z,11.48
2023-05-02T03:54:32.961Z,11.33
2023-05-02T03:57:01.552Z,11.28
2023-05-02T03:59:41.680Z,11.32
2023-05-02T04:02:17.774Z,11.31
2023-05-02T04:04:48.408Z,11.24
2023-05-02T04:07:19.704Z,11.02
2023-05-02T04:09:53.516Z,11.04
2023-05-02T04:12:21.391Z,11.26
2023-05-02T04:14:51.669Z,11.38
2023-05-02T04:17:21.426Z,11.38
2023-05-02T04:19:51.522Z,11.09
2023-05-02T04:22:21.393Z,11.01
2023-05-02T04:24:54.774Z,10.89
2023-05-02T04:27:23.528Z,11.02
2023-05-02T04:29:52.319Z,10.99
2023-05-02T04:32:20.538Z,10.88
2023-05-02T04:34:49.032Z,11.01
2023-05-02T04:37:17.880Z,11.08
2023-05-02T04:39:46.654Z,11.02
2023-05-02T04:42:18.812Z,11.02
2023-05-02T04:44:54.429Z,11.05
2023-05-02T04:47:22.696Z,10.98
2023-05-02T04:49:50.100Z,10.96
2023-05-02T04:52:18.729Z,10.97
2023-05-02T04:54:46.254Z,11.03
2023-05-02T04:57:13.953Z,11.23
2023-05-02T04:59:46.497Z,11.22
2023-05-02T05:02:14.181Z,11.19
2023-05-02T05:04:41.725Z,11.24
2023-05-02T05:07:09.920Z,11.27
2023-05-02T05:09:37.322Z,11.34
2023-05-02T05:12:05.225Z,11.42
2023-05-02T05:14:34.987Z,11.43
2023-05-02T05:17:02.828Z,11.39
2023-05-02T05:19:30.613Z,11.40
2023-05-02T05:21:58.950Z,11.45
2023-05-02T05:24:26.998Z,11.52
2023-05-02T05:26:57.121Z,11.71
2023-05-02T05:29:24.800Z,11.71
2023-05-02T05:31:52.332Z,11.73
2023-05-02T05:34:21.483Z,11.70
2023-05-02T05:36:52.000Z,11.82
2023-05-02T05:39:21.103Z,11.98
2023-05-02T05:41:51.762Z,11.99
2023-05-02T05:44:22.123Z,12.11
2023-05-02T05:46:49.968Z,11.98
2023-05-02T05:49:18.512Z,11.94
2023-05-02T05:51:47.759Z,11.80
2023-05-02T05:54:20.107Z,11.73
2023-05-02T05:56:48.496Z,11.83
2023-05-02T05:59:19.125Z,12.01
2023-05-02T06:01:46.788Z,12.24
2023-05-02T06:04:16.630Z,12.52
2023-05-02T06:06:47.840Z,12.63
2023-05-02T06:09:15.834Z,12.69
2023-05-02T06:11:43.284Z,12.66
2023-05-02T06:14:11.062Z,12.59
2023-05-02T06:16:38.720Z,12.57
2023-05-02T06:19:06.781Z,12.72
2023-05-02T06:21:36.876Z,12.74
2023-05-02T06:24:04.810Z,12.85
2023-05-02T06:26:32.431Z,12.88
2023-05-02T06:28:59.988Z,13.04
2023-05-02T06:31:27.505Z,13.04
2023-05-02T06:33:55.152Z,12.98
2023-05-02T06:36:23.105Z,13.01
2023-05-02T06:38:50.566Z,13.38
2023-05-02T06:41:18.452Z,13.84
2023-05-02T06:43:45.968Z,14.25
2023-05-02T06:46:13.261Z,15.20
2023-05-02T06:48:40.689Z,16.08
2023-05-02T06:51:08.061Z,16.44
2023-05-02T06:53:35.760Z,16.54
2023-05-02T06:56:03.566Z,16.86
2023-05-02T06:58:31.825Z,17.55
2023-05-02T07:00:59.293Z,18.60
2023-05-02T07:03:27.027Z,19.80
2023-05-02T07:05:54.514Z,21.03
2023-05-02T07:08:24.071Z,21.92
2023-05-02T07:10:51.907Z,22.38
2023-05-02T07:13:19.493Z,23.00
2023-05-02T07:15:48.285Z,23.30
2023-05-02T07:18:15.962Z,23.48
2023-05-02T07:20:43.681Z,23.68
2023-05-02T07:23:11.282Z,23.77
2023-05-02T07:25:40.123Z,23.87
2023-05-02T07:28:08.317Z,24.07
2023-05-02T07:30:35.698Z,24.12
2023-05-02T07:33:03.340Z,24.44
2023-05-02T07:35:31.393Z,24.69
2023-05-02T07:37:59.106Z,24.97
2023-05-02T07:40:26.856Z,24.73
2023-05-02T07:42:54.646Z,24.24
2023-05-02T07:45:22.264Z,23.95
2023-05-02T07:47:49.992Z,24.03
2023-05-02T07:50:17.730Z,24.18
2023-05-02T07:52:45.276Z,24.08
2023-05-02T07:55:12.906Z,23.84
2023-05-02T07:57:40.426Z,23.84
2023-05-02T08:00:10.155Z,24.04
2023-05-02T08:02:43.540Z,23.55
2023-05-02T08:05:11.582Z,23.27
2023-05-02T08:07:39.156Z,22.86
2023-05-02T08:10:07.657Z,22.71
2023-05-02T08:12:40.205Z,22.76
2023-05-02T08:15:09.406Z,22.65
2023-05-02T08:17:36.965Z,22.87
2023-05-02T08:20:04.966Z,23.30
2023-05-02T08:22:32.418Z,23.18
2023-05-02T08:24:59.916Z,23.07
2023-05-02T08:27:27.460Z,22.79
2023-05-02T08:29:54.964Z,22.85
2023-05-02T08:32:22.631Z,23.13
2023-05-02T08:34:50.271Z,23.30
2023-05-02T08:37:18.593Z,23.31
2023-05-02T08:39:46.275Z,23.34
2023-05-02T08:42:16.571Z,23.57
2023-05-02T08:44:44.085Z,23.55
2023-05-02T08:47:14.927Z,23.52
2023-05-02T08:49:43.097Z,23.38
2023-05-02T08:52:12.876Z,23.25
2023-05-02T08:54:41.523Z,22.95
2023-05-02T08:57:09.105Z,22.81
2023-05-02T08:59:36.813Z,22.82
2023-05-02T09:02:39.748Z,22.96
2023-05-02T09:05:08.300Z,22.66
2023-05-02T09:07:46.439Z,22.29
2023-05-02T09:10:14.985Z,22.12
2023-05-02T09:12:42.854Z,22.01
2023-05-02T09:15:20.608Z,21.96
2023-05-02T09:17:49.207Z,21.75
2023-05-02T09:20:17.101Z,21.94
2023-05-02T09:22:52.513Z,21.42
2023-05-02T09:25:20.414Z,21.30
2023-05-02T09:27:56.279Z,21.52
2023-05-02T09:30:25.700Z,21.79
2023-05-02T09:32:56.470Z,21.87
2023-05-02T09:35:24.333Z,21.65
2023-05-02T09:37:57.002Z,21.70
2023-05-02T09:40:25.573Z,21.87
2023-05-02T09:42:53.085Z,21.58
2023-05-02T09:45:22.277Z,21.44
2023-05-02T09:47:50.998Z,20.71
2023-05-02T09:50:35.192Z,21.02
2023-05-02T09:53:12.315Z,21.12
2023-05-02T09:55:40.168Z,21.33
2023-05-02T09:58:07.769Z,21.26
2023-05-02T10:00:43.931Z,21.21
2023-05-02T10:03:11.797Z,20.76
2023-05-02T10:05:40.611Z,20.76
2023-05-02T10:08:10.217Z,20.76
2023-05-02T10:10:39.835Z,21.01
2023-05-02T10:13:09.134Z,20.97
2023-05-02T10:15:44.527Z,21.14
2023-05-02T10:18:27.236Z,21.00
2023-05-02T10:21:00.583Z,21.07
2023-05-02T10:23:29.899Z,21.36
2023-05-02T10:26:00.453Z,21.57
2023-05-02T10:28:28.776Z,21.62
2023-05-02T10:30:56.382Z,21.58
2023-05-02T10:33:24.183Z,21.53
2023-05-02T10:35:52.074Z,21.77
2023-05-02T10:38:24.885Z,22.11
2023-05-02T10:41:02.271Z,21.76
2023-05-02T10:43:35.504Z,21.70
2023-05-02T10:46:06.226Z,21.79
2023-05-02T10:48:34.482Z,21.72
2023-05-02T10:51:02.208Z,21.73
2023-05-02T10:53:36.874Z,21.49
2023-05-02T10:56:12.521Z,21.74
2023-05-02T10:58:41.015Z,22.08
2023-05-02T11:01:29.957Z,22.07
2023-05-02T11:04:00.112Z,21.96
2023-05-02T11:06:34.302Z,21.85
2023-05-02T11:09:16.629Z,21.58
2023-05-02T11:11:48.375Z,21.79
2023-05-02T11:14:38.430Z,21.84
2023-05-02T11:17:09.148Z,22.14
2023-05-02T11:19:39.365Z,22.06
2023-05-02T11:22:33.694Z,21.55
2023-05-02T11:25:01.479Z,21.29
2023-05-02T11:27:29.110Z,21.37
2023-05-02T11:30:01.890Z,21.61
2023-05-02T11:32:48.693Z,21.88
2023-05-02T11:35:17.924Z,22.07
2023-05-02T11:38:00.186Z,21.59
2023-05-02T11:40:28.729Z,21.26
2023-05-02T11:42:58.063Z,20.97
2023-05-02T11:45:39.376Z,20.88
2023-05-02T11:48:08.663Z,21.01
2023-05-02T11:50:48.587Z,20.98
2023-05-02T11:53:19.882Z,20.86
2023-05-02T11:55:58.468Z,20.82
2023-05-02T11:58:32.877Z,20.69
2023-05-02T12:01:15.691Z,20.26
2023-05-02T12:03:43.980Z,20.23
2023-05-02T12:06:18.952Z,20.32
2023-05-02T12:08:47.239Z,20.54
2023-05-02T12:11:16.518Z,21.04
2023-05-02T12:13:46.890Z,21.13
2023-05-02T12:16:14.878Z,21.22
2023-05-02T12:18:42.960Z,21.28
2023-05-02T12:21:10.652Z,21.60
2023-05-02T12:23:40.274Z,21.34
2023-05-02T12:26:37.442Z,21.06
2023-05-02T12:29:08.729Z,20.85
2023-05-02T12:31:36.412Z,20.60
2023-05-02T12:34:03.940Z,20.47
2023-05-02T12:36:33.694Z,20.07
2023-05-02T12:39:03.919Z,20.12
2023-05-02T12:41:46.196Z,20.20
2023-05-02T12:44:13.720Z,20.27
2023-05-02T12:46:59.250Z,20.38
2023-05-02T12:49:26.811Z,20.26
2023-05-02T12:51:56.488Z,20.08
2023-05-02T12:54:24.581Z,20.33
2023-05-02T12:56:52.519Z,20.43
2023-05-02T12:59:31.040Z,20.71
2023-05-02T13:01:59.374Z,20.90
2023-05-02T13:04:43.391Z,20.94
2023-05-02T13:07:11.363Z,20.69
2023-05-02T13:09:38.874Z,20.45
2023-05-02T13:12:06.823Z,20.11
2023-05-02T13:14:34.391Z,20.18
2023-05-02T13:17:02.120Z,20.34
2023-05-02T13:19:31.534Z,20.57
2023-05-02T13:21:59.375Z,20.87
2023-05-02T13:24:26.847Z,21.00
2023-05-02T13:26:54.501Z,21.03
2023-05-02T13:29:21.936Z,21.16
2023-05-02T13:31:49.478Z,21.16
2023-05-02T13:34:16.865Z,21.06
2023-05-02T13:36:46.423Z,20.66
2023-05-02T13:39:14.240Z,20.16
2023-05-02T13:41:42.104Z,20.04
2023-05-02T13:44:10.095Z,20.00
2023-05-02T13:46:38.523Z,20.12
2023-05-02T13:49:06.509Z,20.09
2023-05-02T13:51:34.119Z,20.02
2023-05-02T13:54:01.861Z,20.08
2023-05-02T13:56:29.374Z,20.16
2023-05-02T13:58:57.189Z,20.38
2023-05-02T14:01:26.812Z,20.45
2023-05-02T14:03:54.678Z,20.41
2023-05-02T14:06:22.457Z,20.50
2023-05-02T14:08:51.424Z,20.67
2023-05-02T14:11:18.928Z,20.84
2023-05-02T14:13:46.529Z,20.74
2023-05-02T14:16:14.196Z,20.86
2023-05-02T14:18:41.917Z,21.02
2023-05-02T14:21:09.383Z,21.26
2023-05-02T14:23:36.835Z,21.34
2023-05-02T14:26:04.592Z,21.35
2023-05-02T14:28:32.405Z,21.21
2023-05-02T14:31:00.171Z,21.23
2023-05-02T14:33:27.808Z,21.14
2023-05-02T14:35:55.394Z,21.16
2023-05-02T14:38:22.856Z,21.16
2023-05-02T14:40:50.566Z,21.16
2023-05-02T14:43:18.054Z,21.09
2023-05-02T14:45:45.668Z,20.87
2023-05-02T14:48:14.289Z,20.93
2023-05-02T14:50:41.946Z,20.97
2023-05-02T14:53:09.736Z,21.02
2023-05-02T14:55:38.937Z,20.97
2023-05-02T14:58:08.965Z,20.83
2023-05-02T15:00:39.783Z,20.79
2023-05-02T15:03:09.992Z,20.69
2023-05-02T15:05:37.653Z,20.56
2023-05-02T15:08:05.829Z,20.48
2023-05-02T15:10:40.124Z,20.39
2023-05-02T15:13:08.781Z,20.42
2023-05-02T15:15:37.285Z,20.53
2023-05-02T15:18:05.065Z,20.62
2023-05-02T15:20:32.489Z,20.61
2023-05-02T15:23:03.454Z,20.63
2023-05-02T15:25:31.818Z,20.81
2023-05-02T15:27:59.254Z,20.96
2023-05-02T15:30:26.793Z,21.04
2023-05-02T15:32:54.356Z,20.98
2023-05-02T15:35:22.058Z,20.89
2023-05-02T15:37:49.609Z,20.92
2023-05-02T15:40:17.202Z,20.97
2023-05-02T15:42:44.657Z,21.05
2023-05-02T15:45:15.746Z,21.16
2023-05-02T15:47:43.436Z,21.20
2023-05-02T15:50:11.572Z,21.20
2023-05-02T15:52:39.183Z,21.09
2023-05-02T15:55:06.837Z,21.12
2023-05-02T15:57:34.394Z,21.18
2023-05-02T16:00:02.245Z,21.15
2023-05-02T16:02:31.712Z,21.00
2023-05-02T16:04:59.288Z,20.82
2023-05-02T16:07:26.873Z,20.61
2023-05-02T16:09:54.457Z,20.43
2023-05-02T16:12:21.969Z,20.28
2023-05-02T16:14:49.347Z,20.32
2023-05-02T16:17:16.854Z,20.37
2023-05-02T16:19:44.414Z,20.38
2023-05-02T16:22:12.078Z,20.45
2023-05-02T16:24:39.517Z,20.63
2023-05-02T16:27:07.198Z,20.72
2023-05-02T16:29:34.615Z,20.78
2023-05-02T16:32:02.328Z,20.82
2023-05-02T16:34:33.517Z,20.78
2023-05-02T16:37:02.534Z,20.68
2023-05-02T16:39:31.416Z,20.57
2023-05-02T16:41:58.850Z,20.53
2023-05-02T16:44:26.260Z,20.40
2023-05-02T16:46:53.890Z,20.43
2023-05-02T16:49:21.481Z,20.39
2023-05-02T16:51:53.832Z,20.40
2023-05-02T16:54:21.315Z,20.43
2023-05-02T16:56:48.714Z,20.37
2023-05-02T16:59:16.330Z,20.35
2023-05-02T17:01:43.815Z,20.34
2023-05-02T17:04:11.430Z,20.24
2023-05-02T17:06:39.188Z,20.16
2023-05-02T17:09:07.466Z,20.08
2023-05-02T17:11:34.980Z,20.13
2023-05-02T17:14:02.546Z,20.21
2023-05-02T17:16:30.124Z,20.29
2023-05-02T17:18:57.781Z,20.10
2023-05-02T17:21:25.210Z,20.14
2023-05-02T17:23:52.641Z,20.17
2023-05-02T17:26:20.185Z,20.17
2023-05-02T17:28:50.355Z,20.18
2023-05-02T17:31:18.381Z,20.16
2023-05-02T17:33:46.354Z,20.13
2023-05-02T17:36:14.394Z,20.13
2023-05-02T17:38:42.087Z,20.14
2023-05-02T17:41:09.474Z,20.12
2023-05-02T17:43:38.139Z,20.12
2023-05-02T17:46:10.166Z,20.09
2023-05-02T17:48:37.657Z,20.04
2023-05-02T17:51:05.685Z,20.04
2023-05-02T17:53:34.787Z,20.07
2023-05-02T17:56:03.502Z,19.97
2023-05-02T17:58:31.486Z,20.01
2023-05-02T18:01:07.440Z,20.04
2023-05-02T18:03:35.531Z,20.05
2023-05-02T18:06:03.097Z,20.10
2023-05-02T18:08:34.031Z,20.15
2023-05-02T18:11:03.343Z,20.13
2023-05-02T18:13:31.068Z,20.06
2023-05-02T18:16:01.721Z,19.99
2023-05-02T18:18:29.216Z,19.98
2023-05-02T18:20:56.898Z,19.99
2023-05-02T18:23:24.578Z,19.88
2023-05-02T18:25:52.106Z,19.95
2023-05-02T18:28:19.704Z,19.88
2023-05-02T18:30:47.251Z,19.87
2023-05-02T18:33:14.772Z,19.83
2023-05-02T18:35:49.233Z,19.84
2023-05-02T18:38:17.549Z,19.76
2023-05-02T18:40:45.043Z,19.72
2023-05-02T18:43:12.519Z,19.69
2023-05-02T18:45:39.898Z,19.66
2023-05-02T18:48:07.628Z,19.60
2023-05-02T18:50:35.138Z,19.61
2023-05-02T18:53:03.030Z,19.55
2023-05-02T18:55:32.644Z,19.43
2023-05-02T18:58:00.163Z,19.41
2023-05-02T19:00:31.356Z,19.47
2023-05-02T19:02:59.060Z,19.42
2023-05-02T19:05:27.662Z,19.34
2023-05-02T19:07:55.056Z,19.24
2023-05-02T19:10:22.439Z,19.14
2023-05-02T19:12:49.857Z,19.16
2023-05-02T19:15:17.579Z,19.17
2023-05-02T19:17:45.284Z,19.18
2023-05-02T19:20:12.834Z,19.21
2023-05-02T19:22:41.768Z,19.06
2023-05-02T19:25:09.645Z,19.12
2023-05-02T19:27:37.317Z,19.02
2023-05-02T19:30:07.244Z,18.99
2023-05-02T19:32:35.516Z,18.93
2023-05-02T19:35:04.616Z,18.89
2023-05-02T19:37:32.236Z,18.82
2023-05-02T19:39:59.622Z,18.78
2023-05-02T19:42:27.539Z,18.71
2023-05-02T19:44:55.059Z,18.59
2023-05-02T19:47:22.755Z,18.53
2023-05-02T19:49:51.514Z,18.49
2023-05-02T19:52:18.941Z,18.56
2023-05-02T19:54:46.398Z,18.55
2023-05-02T19:57:13.964Z,18.57
2023-05-02T19:59:41.412Z,18.47
2023-05-02T20:02:09.625Z,18.47
2023-05-02T20:04:37.223Z,18.50
2023-05-02T20:07:04.801Z,18.31
2023-05-02T20:09:32.297Z,18.36
2023-05-02T20:11:59.877Z,18.39
2023-05-02T20:14:27.280Z,18.33
2023-05-02T20:17:01.296Z,18.27
2023-05-02T20:19:32.271Z,18.14
2023-05-02T20:21:59.809Z,18.14
2023-05-02T20:24:27.204Z,17.96
2023-05-02T20:26:54.692Z,18.00
2023-05-02T20:29:22.290Z,17.95
2023-05-02T20:31:49.933Z,17.91
2023-05-02T20:34:17.425Z,17.85
2023-05-02T20:36:45.061Z,17.80
2023-05-02T20:39:13.351Z,17.77
2023-05-02T20:41:40.894Z,17.71
2023-05-02T20:44:08.406Z,17.67
2023-05-02T20:46:36.179Z,17.56
2023-05-02T20:49:03.716Z,17.52
2023-05-02T20:51:31.251Z,17.49
2023-05-02T20:53:59.667Z,17.39
2023-05-02T20:56:27.550Z,17.36
2023-05-02T20:58:56.456Z,17.49
2023-05-02T21:01:25.231Z,17.45
2023-05-02T21:03:52.877Z,17.37
2023-05-02T21:06:23.533Z,17.36
2023-05-02T21:08:51.299Z,17.31
2023-05-02T21:11:18.799Z,17.32
2023-05-02T21:13:46.544Z,17.23
2023-05-02T21:16:19.126Z,17.07
2023-05-02T21:18:47.748Z,17.01
2023-05-02T21:21:15.165Z,16.99
2023-05-02T21:23:42.757Z,17.02
2023-05-02T21:26:10.426Z,16.91
2023-05-02T21:28:38.830Z,16.96
2023-05-02T21:31:07.406Z,16.78
2023-05-02T21:33:34.988Z,16.72
2023-05-02T21:36:02.347Z,16.71
2023-05-02T21:38:29.952Z,16.72
2023-05-02T21:41:02.273Z,16.84
2023-05-02T21:43:31.785Z,16.75
2023-05-02T21:45:59.308Z,16.75
2023-05-02T21:48:27.041Z,16.69
2023-05-02T21:50:54.611Z,16.71
2023-05-02T21:53:22.287Z,16.67
2023-05-02T21:55:49.737Z,16.68
2023-05-02T21:58:17.235Z,16.67
2023-05-02T22:00:44.894Z,16.50
2023-05-02T22:03:12.519Z,16.54
2023-05-02T22:05:41.630Z,16.57
2023-05-02T22:08:11.198Z,16.65
2023-05-02T22:10:40.848Z,16.58
2023-05-02T22:13:12.297Z,16.58
2023-05-02T22:15:46.957Z,16.52
2023-05-02T22:18:16.871Z,16.56
2023-05-02T22:20:45.413Z,16.65
2023-05-02T22:23:13.006Z,16.55
2023-05-02T22:25:42.772Z,16.59
2023-05-02T22:28:16.549Z,16.42
2023-05-02T22:30:44.130Z,16.31
2023-05-02T22:33:12.177Z,16.21
2023-05-02T22:35:40.214Z,16.15
2023-05-02T22:38:10.997Z,16.09
2023-05-02T22:40:38.500Z,16.16
2023-05-02T22:43:05.986Z,16.08
2023-05-02T22:45:34.030Z,16.13
2023-05-02T22:48:01.423Z,16.18
2023-05-02T22:50:31.444Z,16.24
2023-05-02T22:52:59.746Z,16.16
2023-05-02T22:55:27.440Z,16.04
2023-05-02T22:57:55.146Z,15.87
2023-05-02T23:00:23.600Z,15.90
2023-05-02T23:02:51.064Z,15.85
2023-05-02T23:05:18.979Z,15.84
2023-05-02T23:07:46.437Z,15.83
2023-05-02T23:10:14.178Z,15.76
2023-05-02T23:12:44.746Z,15.69
2023-05-02T23:15:12.344Z,15.68
2023-05-02T23:17:41.227Z,15.74
2023-05-02T23:20:13.151Z,15.60
2023-05-02T23:22:44.728Z,15.38
2023-05-02T23:25:13.595Z,15.37
2023-05-02T23:27:41.107Z,15.39
2023-05-02T23:30:09.387Z,15.33
2023-05-02T23:32:37.155Z,15.27
2023-05-02T23:35:05.939Z,15.12
2023-05-02T23:37:33.946Z,15.15
2023-05-02T23:40:01.787Z,15.10
2023-05-02T23:42:30.335Z,15.08
2023-05-02T23:44:58.084Z,15.12
2023-05-02T23:47:27.196Z,14.97
2023-05-02T23:49:54.764Z,14.99
2023-05-02T23:52:22.297Z,14.90
2023-05-02T23:54:49.861Z,14.78
2023-05-02T23:57:17.231Z,14.80
2023-05-02T23:59:45.162Z,14.76
